Terminal Aerodrome Forecast
Issued by NWS

Home | Current Version | Previous Version | Text Only | Print | Product List | Glossary On
Versions: 1 2 3 4 5 6 7 8 9 10 11 12 13 14 15 16 17 18 19 20 21 22 23 24 25 26
000
FTUS41 KGYX 251732
TAFAUG
TAF
KAUG 251732Z 2518/2618 11011G17KT P6SM BKN035 BKN100
     FM252100 10014G22KT 4SM -SHRA BR OVC015
     FM260000 08015G22KT 3SM -DZ BR OVC006
     FM260200 05016G24KT 2SM RA BR OVC004=

USA.gov is the U.S. government's official web portal to all federal, state and local government web resources and services.